Time;durP1;ratioP1;P1;durP2;ratioP2;P2;SDS_P1;SDS_P2;PMS_P1;PMS_P2;Temp;Humidity;BMP_temperature;BMP_pressure;BME280_temperature;BME280_humidity;BME280_pressure;Samples;Min_cycle;Max_cycle;Signal;HPM_P1;HPM_P2
2022/08/02 06:14:20;;;;;;;3.42;1.70;;;;;;;;;;6246819;22;20083;-89
2022/08/02 06:16:47;;;;;;;3.97;2.05;;;;;;;;;;6246235;23;20020;-90
2022/08/02 09:10:36;;;;;;;4.65;3.78;;;;;;;;;;6278564;22;20011;-82
2022/08/02 09:13:23;;;;;;;3.72;3.42;;;;;;;;;;6309334;22;20013;-84
2022/08/02 09:15:55;;;;;;;5.13;3.10;;;;;;;;;;6307320;22;20081;-83
2022/08/02 09:18:28;;;;;;;3.60;3.30;;;;;;;;;;6309284;22;20004;-81
2022/08/02 09:20:58;;;;;;;3.67;2.80;;;;;;;;;;6309270;22;19999;-79
2022/08/02 09:23:25;;;;;;;3.70;3.40;;;;;;;;;;6309177;22;20023;-80
2022/08/02 09:25:59;;;;;;;3.50;3.17;;;;;;;;;;6309222;22;20000;-80
2022/08/02 09:28:30;;;;;;;3.15;2.95;;;;;;;;;;6309656;22;20040;-80
2022/08/02 09:31:11;;;;;;;4.35;3.05;;;;;;;;;;6309035;22;19999;-81
2022/08/02 09:33:38;;;;;;;3.30;2.95;;;;;;;;;;6308975;22;20004;-81
2022/08/02 09:36:06;;;;;;;2.80;2.25;;;;;;;;;;6308946;22;20010;-80
2022/08/02 09:38:32;;;;;;;3.28;2.95;;;;;;;;;;6309388;22;20038;-83
2022/08/02 09:40:58;;;;;;;3.13;2.90;;;;;;;;;;6307451;22;20003;-82
2022/08/02 09:43:38;;;;;;;2.92;2.72;;;;;;;;;;6309274;22;20480;-81
2022/08/02 09:46:15;;;;;;;3.40;3.10;;;;;;;;;;6308803;22;19999;-81
2022/08/02 09:48:59;;;;;;;2.70;2.50;;;;;;;;;;6308768;22;20056;-81
2022/08/02 09:51:27;;;;;;;3.10;2.80;;;;;;;;;;6307302;22;20007;-81
2022/08/02 09:53:58;;;;;;;2.90;2.60;;;;;;;;;;6309049;22;20003;-84
2022/08/02 09:56:27;;;;;;;3.13;2.83;;;;;;;;;;6309044;22;20008;-81
2022/08/02 09:58:55;;;;;;;5.55;3.03;;;;;;;;;;6308833;22;20007;-83
2022/08/02 10:01:29;;;;;;;3.75;2.92;;;;;;;;;;6308654;22;19999;-82
2022/08/02 10:03:57;;;;;;;3.17;2.97;;;;;;;;;;6306450;22;20430;-81
2022/08/02 10:06:23;;;;;;;3.70;3.40;;;;;;;;;;6308974;22;20003;-81
2022/08/02 10:08:50;;;;;;;3.25;2.92;;;;;;;;;;6308777;22;20500;-83
2022/08/02 10:11:16;;;;;;;3.00;2.80;;;;;;;;;;6308602;22;20037;-81
2022/08/02 10:13:41;;;;;;;4.22;2.65;;;;;;;;;;6308522;22;20004;-83
2022/08/02 10:16:07;;;;;;;2.95;2.75;;;;;;;;;;6308574;22;20000;-82
2022/08/02 10:18:33;;;;;;;3.03;2.63;;;;;;;;;;6308765;22;20051;-83
2022/08/02 10:21:01;;;;;;;3.22;2.80;;;;;;;;;;6308789;22;20323;-82
2022/08/02 10:23:28;;;;;;;3.05;2.85;;;;;;;;;;6306564;22;20011;-85
2022/08/02 10:25:55;;;;;;;2.72;2.53;;;;;;;;;;6308470;22;20011;-81
2022/08/02 10:28:31;;;;;;;2.60;2.40;;;;;;;;;;6308380;22;20003;-86
2022/08/02 10:30:58;;;;;;;3.78;2.88;;;;;;;;;;6308544;22;20414;-84
2022/08/02 10:33:26;;;;;;;3.17;2.88;;;;;;;;;;6308649;22;20006;-84
2022/08/02 10:35:56;;;;;;;3.77;2.60;;;;;;;;;;6308688;22;20003;-84
2022/08/02 10:38:23;;;;;;;2.50;2.30;;;;;;;;;;6308447;22;20354;-84
2022/08/02 10:40:50;;;;;;;4.25;2.92;;;;;;;;;;6308219;22;19999;-84
2022/08/02 10:43:31;;;;;;;2.83;2.63;;;;;;;;;;6308860;22;20010;-84
2022/08/02 10:46:24;;;;;;;2.88;2.58;;;;;;;;;;6308340;22;19999;-85
2022/08/02 10:49:07;;;;;;;3.08;2.55;;;;;;;;;;6308194;22;20007;-86
2022/08/02 10:51:54;;;;;;;2.85;2.65;;;;;;;;;;6306684;22;20087;-84
2022/08/02 10:54:23;;;;;;;2.75;2.55;;;;;;;;;;6308388;22;20086;-87
2022/08/02 10:56:50;;;;;;;2.88;2.60;;;;;;;;;;6306555;22;20418;-84
2022/08/02 10:59:42;;;;;;;3.47;2.72;;;;;;;;;;6308084;22;20018;-84
2022/08/02 11:02:08;;;;;;;2.60;2.40;;;;;;;;;;6303830;22;20010;-84
2022/08/02 11:04:39;;;;;;;2.83;2.25;;;;;;;;;;6308288;22;20082;-84
2022/08/02 11:07:32;;;;;;;2.60;2.40;;;;;;;;;;6308774;22;20010;-84
2022/08/02 11:10:00;;;;;;;4.00;2.40;;;;;;;;;;6296276;22;20008;-84
2022/08/02 11:12:27;;;;;;;2.35;2.25;;;;;;;;;;6308314;22;20010;-84
2022/08/02 11:15:04;;;;;;;1.95;1.85;;;;;;;;;;6308136;22;20338;-84
2022/08/02 11:17:55;;;;;;;3.40;2.33;;;;;;;;;;6308011;22;20003;-84
2022/08/02 11:20:23;;;;;;;2.22;1.88;;;;;;;;;;6308051;22;19999;-84
2022/08/02 11:22:51;;;;;;;4.13;2.22;;;;;;;;;;6308165;22;20017;-84
2022/08/02 11:25:22;;;;;;;2.17;1.98;;;;;;;;;;6307912;22;20330;-84
2022/08/02 11:27:53;;;;;;;1.77;1.60;;;;;;;;;;6307904;22;20034;-85
2022/08/02 11:30:19;;;;;;;2.25;2.00;;;;;;;;;;6307915;22;20034;-85
2022/08/02 11:32:45;;;;;;;2.00;1.90;;;;;;;;;;6307711;22;20330;-86
2022/08/02 11:35:11;;;;;;;3.03;1.50;;;;;;;;;;6307454;22;20086;-85
2022/08/02 11:37:42;;;;;;;1.45;1.35;;;;;;;;;;6308131;22;20003;-84
2022/08/02 11:40:16;;;;;;;1.60;1.50;;;;;;;;;;6308162;22;20437;-85
2022/08/02 11:42:44;;;;;;;1.60;1.50;;;;;;;;;;6307814;22;20584;-84
2022/08/02 17:18:55;;;;;;;3.30;1.20;;;;;;;;;;6337836;22;20064;-86
2022/08/02 17:21:20;;;;;;;2.05;1.40;;;;;;;;;;6324907;22;20016;-92
2022/08/02 17:23:46;;;;;;;1.95;1.85;;;;;;;;;;6311963;22;19999;-90
2022/08/02 17:26:11;;;;;;;1.67;1.50;;;;;;;;;;6310549;22;20000;-89
2022/08/02 17:28:36;;;;;;;1.60;1.50;;;;;;;;;;6310701;22;20057;-91
2022/08/02 17:31:02;;;;;;;1.58;1.40;;;;;;;;;;6310692;22;20003;-91
2022/08/02 17:33:27;;;;;;;2.35;1.60;;;;;;;;;;6313695;22;20422;-87
2022/08/02 17:35:53;;;;;;;1.90;1.73;;;;;;;;;;6313954;22;20070;-88
2022/08/02 17:38:20;;;;;;;2.45;1.40;;;;;;;;;;6319554;22;20376;-94
2022/08/02 17:40:45;;;;;;;2.30;1.67;;;;;;;;;;6320386;22;20082;-93
2022/08/02 17:43:11;;;;;;;2.25;1.65;;;;;;;;;;6311456;22;20004;-86
2022/08/02 17:45:36;;;;;;;1.58;1.48;;;;;;;;;;6309565;22;20403;-91
2022/08/02 17:48:02;;;;;;;1.52;1.42;;;;;;;;;;6309291;22;20400;-94
2022/08/02 17:50:27;;;;;;;1.48;1.38;;;;;;;;;;6309284;22;20003;-88
2022/08/02 17:52:53;;;;;;;2.78;2.10;;;;;;;;;;6309543;22;20009;-91
2022/08/02 17:55:19;;;;;;;1.70;1.60;;;;;;;;;;6309496;22;20028;-92
2022/08/02 17:57:44;;;;;;;2.58;1.45;;;;;;;;;;6309515;22;20003;-88
2022/08/02 18:00:10;;;;;;;2.50;1.85;;;;;;;;;;6309460;22;20422;-93
2022/08/02 18:02:36;;;;;;;3.35;1.70;;;;;;;;;;6308854;22;20410;-91
2022/08/02 18:05:02;;;;;;;2.97;1.60;;;;;;;;;;6308701;22;20003;-89
2022/08/02 18:07:28;;;;;;;4.05;2.15;;;;;;;;;;6309172;22;20010;-89
2022/08/02 18:09:53;;;;;;;1.92;1.50;;;;;;;;;;6307991;22;20372;-89
2022/08/02 18:12:19;;;;;;;1.50;1.40;;;;;;;;;;6309964;22;20366;-87
2022/08/02 18:14:45;;;;;;;1.80;1.70;;;;;;;;;;6309598;22;20418;-89
2022/08/02 18:17:11;;;;;;;2.25;1.80;;;;;;;;;;6309535;22;20003;-89
2022/08/02 18:19:37;;;;;;;4.03;1.60;;;;;;;;;;6307191;22;20450;-89
2022/08/02 18:22:02;;;;;;;2.17;1.88;;;;;;;;;;6308913;22;19999;-89
2022/08/02 18:24:29;;;;;;;4.25;2.40;;;;;;;;;;6307041;22;20423;-89
2022/08/02 18:26:55;;;;;;;4.65;2.63;;;;;;;;;;6309281;22;19999;-88
2022/08/02 18:29:21;;;;;;;2.70;2.05;;;;;;;;;;6308782;22;20009;-87
2022/08/02 18:31:47;;;;;;;2.42;1.60;;;;;;;;;;6307564;22;20007;-88
2022/08/02 18:34:13;;;;;;;2.20;2.00;;;;;;;;;;6308772;22;20082;-88
2022/08/02 18:36:38;;;;;;;3.20;1.85;;;;;;;;;;6309035;22;19999;-86
2022/08/02 22:05:35;;;;;;;2.72;2.53;;;;;;;;;;6250614;22;20027;31
2022/08/02 22:08:00;;;;;;;2.58;2.17;;;;;;;;;;6222198;23;20039;-88
2022/08/02 22:10:26;;;;;;;3.08;2.10;;;;;;;;;;6249141;23;20012;-88
